createdAt,value
2023-04-12T00:02:08.937Z,94342.53
2023-04-12T00:04:37.555Z,94338.72
2023-04-12T00:07:06.234Z,94339.94
2023-04-12T00:09:36.539Z,94333.00
2023-04-12T00:12:06.250Z,94293.97
2023-04-12T00:14:34.524Z,94343.03
2023-04-12T00:17:04.228Z,94337.88
2023-04-12T00:19:32.506Z,94339.63
2023-04-12T00:22:00.725Z,94341.44
2023-04-12T00:24:28.996Z,94337.44
2023-04-12T00:26:57.298Z,94333.47
2023-04-12T00:29:26.827Z,94331.13
2023-04-12T00:31:55.155Z,94339.09
2023-04-12T00:34:24.927Z,94328.88
2023-04-12T00:36:53.205Z,94329.22
2023-04-12T00:39:21.491Z,94324.84
2023-04-12T00:41:49.852Z,94323.00
2023-04-12T00:44:18.463Z,94318.50
2023-04-12T00:46:47.813Z,94322.25
2023-04-12T00:49:16.727Z,94234.97
2023-04-12T00:51:46.526Z,94279.16
2023-04-12T00:54:18.189Z,94310.28
2023-04-12T00:56:47.646Z,94313.78
2023-04-12T00:59:15.937Z,94317.44
2023-04-12T01:01:45.563Z,94308.41
2023-04-12T01:04:14.175Z,94305.88
2023-04-12T01:07:03.857Z,94302.34
2023-04-12T01:09:37.730Z,94306.72
2023-04-12T01:12:15.970Z,94197.63
2023-04-12T01:14:53.070Z,94301.03
2023-04-12T01:17:25.195Z,94305.53
2023-04-12T01:19:59.688Z,94299.88
2023-04-12T01:22:47.456Z,94292.38
2023-04-12T01:25:28.780Z,94299.66
2023-04-12T01:28:02.542Z,94305.94
2023-04-12T01:30:32.070Z,94305.13
2023-04-12T01:33:03.038Z,94299.38
2023-04-12T01:35:35.105Z,94254.16
2023-04-12T01:38:05.594Z,94296.97
2023-04-12T01:40:33.983Z,94295.38
2023-04-12T01:43:11.690Z,94258.47
2023-04-12T01:45:40.985Z,94292.88
2023-04-12T01:48:11.366Z,94291.72
2023-04-12T01:50:46.222Z,94292.28
2023-04-12T01:53:19.842Z,94282.09
2023-04-12T01:55:50.219Z,94291.22
2023-04-12T01:58:23.473Z,94286.06
2023-04-12T02:00:53.367Z,94283.16
2023-04-12T02:03:23.273Z,94237.56
2023-04-12T02:05:54.014Z,94291.03
2023-04-12T02:08:23.126Z,94294.84
2023-04-12T02:10:51.662Z,94292.41
2023-04-12T02:13:21.414Z,94285.69
2023-04-12T02:15:49.803Z,94272.00
2023-04-12T02:18:18.267Z,94290.13
2023-04-12T02:20:46.676Z,94295.66
2023-04-12T02:23:14.950Z,94303.22
2023-04-12T02:25:44.282Z,94292.28
2023-04-12T02:28:12.485Z,94309.03
2023-04-12T02:30:42.619Z,94304.34
2023-04-12T02:33:12.012Z,94305.94
2023-04-12T02:35:40.465Z,94312.91
2023-04-12T02:38:09.297Z,94308.13
2023-04-12T02:40:40.900Z,94291.84
2023-04-12T02:43:09.519Z,94324.91
2023-04-12T02:45:37.802Z,94300.06
2023-04-12T02:48:07.767Z,94305.28
2023-04-12T02:50:36.298Z,94301.19
2023-04-12T02:53:04.542Z,94304.06
2023-04-12T02:55:32.780Z,94306.16
2023-04-12T02:58:01.074Z,94312.13
2023-04-12T03:00:29.367Z,94308.88
2023-04-12T03:02:59.137Z,94306.00
2023-04-12T03:05:28.946Z,94294.72
2023-04-12T03:07:57.236Z,94294.47
2023-04-12T03:10:25.619Z,94284.72
2023-04-12T03:12:53.890Z,94302.13
2023-04-12T03:15:23.767Z,94296.78
2023-04-12T03:17:52.297Z,94300.31
2023-04-12T03:20:20.625Z,94302.03
2023-04-12T03:22:50.291Z,94266.91
2023-04-12T03:25:19.142Z,94302.03
2023-04-12T03:27:48.000Z,94301.72
2023-04-12T03:30:16.452Z,94278.91
2023-04-12T03:32:46.069Z,94293.41
2023-04-12T03:35:14.398Z,94299.28
2023-04-12T03:37:44.277Z,94295.00
2023-04-12T03:40:14.986Z,94302.56
2023-04-12T03:42:43.217Z,94306.59
2023-04-12T03:45:12.393Z,94308.84
2023-04-12T03:47:40.860Z,94311.91
2023-04-12T03:50:12.407Z,94310.72
2023-04-12T03:52:41.064Z,94312.91
2023-04-12T03:55:10.194Z,94311.00
2023-04-12T03:57:39.814Z,94312.25
2023-04-12T04:00:10.088Z,94297.22
2023-04-12T04:02:38.608Z,94312.38
2023-04-12T04:05:13.222Z,94286.19
2023-04-12T04:07:41.682Z,94318.03
2023-04-12T04:10:11.300Z,94314.47
2023-04-12T04:12:41.093Z,94239.16
2023-04-12T04:15:10.601Z,94306.47
2023-04-12T04:17:39.026Z,94315.31
2023-04-12T04:20:09.211Z,94315.84
2023-04-12T04:22:38.492Z,94315.59
2023-04-12T04:25:08.234Z,94317.06
2023-04-12T04:27:38.648Z,94319.81
2023-04-12T04:30:10.618Z,94320.16
2023-04-12T04:32:38.993Z,94318.91
2023-04-12T04:35:08.638Z,94316.84
2023-04-12T04:37:37.388Z,94310.34
2023-04-12T04:40:09.664Z,94313.84
2023-04-12T04:42:39.957Z,94325.31
2023-04-12T04:45:14.798Z,94333.56
2023-04-12T04:47:43.232Z,94345.13
2023-04-12T04:50:13.131Z,94343.03
2023-04-12T04:52:41.467Z,94329.06
2023-04-12T04:55:11.550Z,94329.63
2023-04-12T04:57:40.036Z,94347.00
2023-04-12T05:00:12.171Z,94328.72
2023-04-12T05:02:43.055Z,94297.09
2023-04-12T05:05:13.720Z,94162.41
2023-04-12T05:07:43.572Z,94214.81
2023-04-12T05:10:12.704Z,94343.19
2023-04-12T05:12:40.987Z,94337.31
2023-04-12T05:15:12.611Z,94339.88
2023-04-12T05:17:41.123Z,94333.19
2023-04-12T05:20:12.003Z,94332.09
2023-04-12T05:22:40.614Z,94260.38
2023-04-12T05:25:09.592Z,94322.38
2023-04-12T05:27:37.887Z,94323.75
2023-04-12T05:30:08.115Z,94316.22
2023-04-12T05:32:37.799Z,94304.31
2023-04-12T05:35:07.244Z,94316.31
2023-04-12T05:37:35.505Z,94321.38
2023-04-12T05:40:05.935Z,94320.88
2023-04-12T05:42:34.239Z,94312.53
2023-04-12T05:45:02.615Z,94306.97
2023-04-12T05:47:30.981Z,94305.44
2023-04-12T05:50:00.835Z,94309.69
2023-04-12T05:52:29.160Z,94330.22
2023-04-12T05:54:57.451Z,94324.84
2023-04-12T05:57:25.867Z,94324.69
2023-04-12T05:59:54.950Z,94325.38
2023-04-12T06:02:26.336Z,94333.28
2023-04-12T06:04:55.923Z,94339.78
2023-04-12T06:07:25.903Z,94343.91
2023-04-12T06:09:54.341Z,94328.97
2023-04-12T06:12:22.644Z,94320.69
2023-04-12T06:14:50.938Z,94344.06
2023-04-12T06:17:19.273Z,94349.59
2023-04-12T06:19:47.938Z,94341.91
2023-04-12T06:22:16.856Z,94345.56
2023-04-12T06:24:46.603Z,94346.34
2023-04-12T06:27:15.047Z,94285.41
2023-04-12T06:29:43.353Z,94341.88
2023-04-12T06:32:11.767Z,94282.84
2023-04-12T06:34:40.124Z,94242.72
2023-04-12T06:37:09.906Z,94309.94
2023-04-12T06:39:38.439Z,94284.25
2023-04-12T06:42:08.194Z,94318.09
2023-04-12T06:44:36.538Z,94276.78
2023-04-12T06:47:04.829Z,94310.97
2023-04-12T06:49:33.217Z,94296.78
2023-04-12T06:52:01.526Z,94292.50
2023-04-12T06:54:29.858Z,94286.91
2023-04-12T06:56:58.685Z,94285.03
2023-04-12T06:59:28.432Z,94278.41
2023-04-12T07:01:56.713Z,94289.03
2023-04-12T07:04:24.970Z,94275.19
2023-04-12T07:06:53.284Z,94248.50
2023-04-12T07:09:21.477Z,94259.50
2023-04-12T07:11:49.874Z,94255.81
2023-04-12T07:14:18.261Z,94253.97
2023-04-12T07:16:48.020Z,94251.50
2023-04-12T07:19:16.697Z,94178.41
2023-04-12T07:21:45.061Z,94241.38
2023-04-12T07:24:13.310Z,94231.66
2023-04-12T07:26:41.573Z,94239.28
2023-04-12T07:29:09.915Z,94230.31
2023-04-12T07:31:38.183Z,94222.47
2023-04-12T07:34:08.255Z,94223.69
2023-04-12T07:36:36.794Z,94211.38
2023-04-12T07:39:05.430Z,94209.44
2023-04-12T07:41:33.747Z,94211.88
2023-04-12T07:44:02.028Z,94213.63
2023-04-12T07:46:30.491Z,94156.63
2023-04-12T07:48:59.127Z,94228.38
2023-04-12T07:51:28.901Z,94226.72
2023-04-12T07:53:57.274Z,94218.19
2023-04-12T07:56:25.819Z,94211.25
2023-04-12T07:58:54.208Z,94218.66
2023-04-12T08:01:22.545Z,94200.41
2023-04-12T08:03:51.138Z,94198.91
2023-04-12T08:06:19.436Z,94199.88
2023-04-12T08:08:49.108Z,94192.72
2023-04-12T08:11:17.340Z,94173.09
2023-04-12T08:13:45.688Z,94187.44
2023-04-12T08:16:14.140Z,94195.78
2023-04-12T08:18:42.379Z,94208.19
2023-04-12T08:21:10.782Z,94201.09
2023-04-12T08:23:39.071Z,94199.41
2023-04-12T08:26:08.819Z,94213.78
2023-04-12T08:28:39.487Z,94211.41
2023-04-12T08:31:08.678Z,94172.03
2023-04-12T08:33:37.078Z,94214.56
2023-04-12T08:36:06.212Z,94223.75
2023-04-12T08:38:45.007Z,94224.78
2023-04-12T08:41:16.323Z,94155.66
2023-04-12T08:43:47.621Z,94231.47
2023-04-12T08:46:17.114Z,94230.00
2023-04-12T08:48:47.331Z,94227.34
2023-04-12T08:51:16.799Z,94239.69
2023-04-12T08:53:45.209Z,94235.06
2023-04-12T08:56:16.412Z,94233.56
2023-04-12T08:58:49.082Z,94231.59
2023-04-12T09:01:18.768Z,94229.81
2023-04-12T09:03:47.697Z,94230.38
2023-04-12T09:06:16.240Z,94223.19
2023-04-12T09:08:54.982Z,94188.19
2023-04-12T09:11:26.501Z,94214.13
2023-04-12T09:13:56.719Z,94220.69
2023-04-12T09:16:38.730Z,94220.88
2023-04-12T09:19:07.387Z,94236.75
2023-04-12T09:21:36.228Z,94226.78
2023-04-12T09:24:12.306Z,94239.94
2023-04-12T09:26:43.303Z,94220.63
2023-04-12T09:29:25.650Z,94204.28
2023-04-12T09:31:57.965Z,94214.00
2023-04-12T09:34:27.926Z,94205.38
2023-04-12T09:36:56.890Z,94197.16
2023-04-12T09:39:35.701Z,94187.72
2023-04-12T09:42:25.038Z,94193.03
2023-04-12T09:44:59.672Z,94144.50
2023-04-12T09:47:39.935Z,94150.00
2023-04-12T09:50:10.077Z,94142.13
2023-04-12T09:52:39.498Z,94180.75
2023-04-12T09:55:11.203Z,94167.69
2023-04-12T09:57:43.364Z,94180.88
2023-04-12T10:00:17.870Z,94178.56
2023-04-12T10:02:48.127Z,94154.88
2023-04-12T10:05:19.882Z,94196.78
2023-04-12T10:07:49.224Z,94200.59
2023-04-12T10:10:19.831Z,94201.41
2023-04-12T10:12:50.850Z,94190.31
2023-04-12T10:15:21.379Z,94211.72
2023-04-12T10:17:51.281Z,94199.28
2023-04-12T10:20:21.137Z,94180.28
2023-04-12T10:22:51.750Z,94180.56
2023-04-12T10:25:21.820Z,94188.25
2023-04-12T10:27:51.987Z,94183.97
2023-04-12T10:30:22.621Z,94185.81
2023-04-12T10:33:11.901Z,94173.88
2023-04-12T10:35:57.846Z,94186.78
2023-04-12T10:38:27.421Z,94182.00
2023-04-12T10:41:18.846Z,94168.06
2023-04-12T10:43:49.730Z,94170.94
2023-04-12T10:46:50.119Z,94163.44
2023-04-12T10:49:19.070Z,94117.28
2023-04-12T10:52:17.850Z,94155.13
2023-04-12T10:54:46.997Z,94136.19
2023-04-12T10:57:43.890Z,94139.91
2023-04-12T11:00:14.947Z,94117.38
2023-04-12T11:03:12.738Z,94103.91
2023-04-12T11:06:20.106Z,94123.06
2023-04-12T11:08:57.108Z,94118.44
2023-04-12T11:11:27.646Z,94130.06
2023-04-12T11:13:59.372Z,94123.13
2023-04-12T11:16:29.117Z,94137.16
2023-04-12T11:18:57.894Z,94126.72
2023-04-12T11:21:27.113Z,94124.56
2023-04-12T11:23:56.674Z,94116.75
2023-04-12T11:26:25.699Z,94104.00
2023-04-12T11:28:56.143Z,94123.81
2023-04-12T11:31:24.938Z,94139.06
2023-04-12T11:33:54.664Z,94129.75
2023-04-12T11:36:22.912Z,94154.28
2023-04-12T11:38:51.238Z,94182.72
2023-04-12T11:41:19.635Z,94182.84
2023-04-12T11:43:49.814Z,94162.31
2023-04-12T11:46:18.666Z,94198.44
2023-04-12T11:48:47.683Z,94227.50
2023-04-12T11:51:25.444Z,94199.22
2023-04-12T11:53:58.218Z,94210.72
2023-04-12T11:56:27.449Z,94207.63
2023-04-12T11:58:55.801Z,94211.84
2023-04-12T12:01:24.805Z,94216.53
2023-04-12T12:03:53.542Z,94224.28
2023-04-12T12:06:25.227Z,94213.38
2023-04-12T12:08:54.567Z,94210.88
2023-04-12T12:11:23.656Z,94200.94
2023-04-12T12:13:53.428Z,94169.53
2023-04-12T12:16:26.668Z,94206.72
2023-04-12T12:18:55.884Z,94196.38
2023-04-12T12:21:28.686Z,94191.81
2023-04-12T12:23:58.670Z,94203.38
2023-04-12T12:26:28.637Z,94209.28
2023-04-12T12:29:00.577Z,94202.94
2023-04-12T12:31:29.970Z,94207.38
2023-04-12T12:34:00.089Z,94198.50
2023-04-12T12:36:34.396Z,94198.69
2023-04-12T12:39:10.687Z,94208.56
2023-04-12T12:41:39.855Z,94219.72
2023-04-12T12:44:08.773Z,94211.84
2023-04-12T12:46:52.043Z,94214.59
2023-04-12T12:49:23.856Z,94207.47
2023-04-12T12:51:53.647Z,94165.97
2023-04-12T12:57:07.730Z,94200.84
2023-04-12T12:59:36.075Z,94200.38
2023-04-12T13:02:05.591Z,94190.44
2023-04-12T13:04:34.220Z,94176.66
2023-04-12T13:07:03.928Z,94196.00
2023-04-12T13:09:33.007Z,94183.63
2023-04-12T13:12:02.076Z,94186.28
2023-04-12T13:14:30.694Z,94206.53
2023-04-12T13:16:59.075Z,94188.72
2023-04-12T13:19:27.435Z,94159.06
2023-04-12T13:21:55.692Z,94181.28
2023-04-12T13:24:25.320Z,94188.91
2023-04-12T13:26:53.541Z,94199.06
2023-04-12T13:29:21.729Z,94209.03
2023-04-12T13:31:49.979Z,94212.53
2023-04-12T13:34:18.209Z,94200.41
2023-04-12T13:36:46.516Z,94195.81
2023-04-12T13:39:14.799Z,94175.59
2023-04-12T13:41:44.652Z,94199.84
2023-04-12T13:44:12.857Z,94192.50
2023-04-12T13:46:42.088Z,94183.38
2023-04-12T13:49:28.613Z,94190.75
2023-04-12T13:51:57.181Z,94167.16
2023-04-12T13:54:25.443Z,94179.53
2023-04-12T13:56:55.094Z,94185.63
2023-04-12T13:59:23.391Z,94188.16
2023-04-12T14:02:01.264Z,94169.41
2023-04-12T14:04:30.248Z,94210.31
2023-04-12T14:06:59.069Z,94191.06
2023-04-12T14:09:28.715Z,94210.88
2023-04-12T14:12:01.812Z,94212.78
2023-04-12T14:14:30.112Z,94212.22
2023-04-12T14:16:58.483Z,94202.66
2023-04-12T14:19:27.296Z,94205.09
2023-04-12T14:21:56.127Z,94209.47
2023-04-12T14:24:24.577Z,94207.72
2023-04-12T14:26:53.611Z,94200.88
2023-04-12T14:29:23.315Z,94204.97
2023-04-12T14:31:51.824Z,94210.66
2023-04-12T14:34:20.171Z,94208.88
2023-04-12T14:36:48.537Z,94181.28
2023-04-12T14:39:17.171Z,94197.59
2023-04-12T14:41:45.534Z,94127.41
2023-04-12T14:44:13.946Z,94164.41
2023-04-12T14:46:43.834Z,94207.66
2023-04-12T14:49:12.154Z,94177.75
2023-04-12T14:51:40.823Z,94204.66
2023-04-12T14:54:09.178Z,94219.91
2023-04-12T14:56:44.369Z,94222.63
2023-04-12T14:59:15.839Z,94223.13
2023-04-12T15:01:45.528Z,94228.47
2023-04-12T15:04:14.073Z,94234.28
2023-04-12T15:06:45.062Z,94232.38
2023-04-12T15:09:16.024Z,94206.84
2023-04-12T15:11:46.595Z,94223.53
2023-04-12T15:14:18.197Z,94237.41
2023-04-12T15:16:49.400Z,94233.50
2023-04-12T15:19:22.331Z,94232.47
2023-04-12T15:21:52.407Z,94238.09
2023-04-12T15:24:22.374Z,94240.06
2023-04-12T15:26:52.865Z,94244.75
2023-04-12T15:29:22.806Z,94167.28
2023-04-12T15:31:52.894Z,94226.69
2023-04-12T15:34:23.595Z,94239.22
2023-04-12T15:36:52.114Z,94226.69
2023-04-12T15:39:20.596Z,94242.75
2023-04-12T15:41:48.825Z,94249.22
2023-04-12T15:44:17.146Z,94247.75
2023-04-12T15:46:56.010Z,94204.59
2023-04-12T15:49:35.600Z,94253.91
2023-04-12T15:52:04.674Z,94260.34
2023-04-12T15:54:32.991Z,94259.38
2023-04-12T15:57:11.421Z,94244.50
2023-04-12T15:59:40.669Z,94240.00
2023-04-12T16:02:10.090Z,94265.97
2023-04-12T16:04:40.607Z,94252.38
2023-04-12T16:07:09.169Z,94267.59
2023-04-12T16:09:39.892Z,94244.91
2023-04-12T16:12:08.317Z,94268.16
2023-04-12T16:14:37.027Z,94279.38
2023-04-12T16:17:05.401Z,94272.34
2023-04-12T16:19:33.723Z,94283.94
2023-04-12T16:22:03.948Z,94286.56
2023-04-12T16:24:32.391Z,94232.47
2023-04-12T16:27:00.746Z,94248.88
2023-04-12T16:29:29.209Z,94226.31
2023-04-12T16:31:57.587Z,94302.09
2023-04-12T16:34:26.209Z,94281.38
2023-04-12T16:36:54.811Z,94305.59
2023-04-12T16:39:24.693Z,94148.13
2023-04-12T16:41:53.015Z,94284.81
2023-04-12T16:44:21.290Z,94309.50
2023-04-12T16:46:49.977Z,94305.31
2023-04-12T16:49:19.807Z,94319.13
2023-04-12T16:51:48.288Z,94310.47
2023-04-12T16:54:16.921Z,94304.59
2023-04-12T16:56:47.386Z,94324.06
2023-04-12T16:59:15.797Z,94325.00
2023-04-12T17:01:44.383Z,94316.56
2023-04-12T17:04:13.113Z,94333.13
2023-04-12T17:06:42.883Z,94330.81
2023-04-12T17:09:11.329Z,94333.00
2023-04-12T17:11:39.598Z,94343.19
2023-04-12T17:14:09.451Z,94352.25
2023-04-12T17:16:38.005Z,94248.94
2023-04-12T17:19:06.882Z,94282.25
2023-04-12T17:21:42.215Z,94284.91
2023-04-12T17:24:11.028Z,94176.34
2023-04-12T17:26:40.510Z,94308.66
2023-04-12T17:29:10.246Z,94322.59
2023-04-12T17:31:39.617Z,94363.25
2023-04-12T17:34:08.266Z,94360.38
2023-04-12T17:36:36.600Z,94376.00
2023-04-12T17:39:05.193Z,94376.94
2023-04-12T17:41:33.508Z,94386.34
2023-04-12T17:44:01.935Z,94394.41
2023-04-12T17:46:32.060Z,94390.28
2023-04-12T17:49:04.132Z,94381.38
2023-04-12T17:51:33.398Z,94401.97
2023-04-12T17:54:03.730Z,94405.19
2023-04-12T17:56:32.117Z,94402.28
2023-04-12T17:59:02.183Z,94423.41
2023-04-12T18:01:31.920Z,94427.28
2023-04-12T18:06:32.881Z,94416.06
2023-04-12T18:09:02.545Z,94435.22
2023-04-12T18:11:31.208Z,94427.81
2023-04-12T18:13:59.667Z,94450.50
2023-04-12T18:16:28.450Z,94450.19
2023-04-12T18:18:58.469Z,94454.84
2023-04-12T18:21:27.085Z,94451.97
2023-04-12T18:23:55.579Z,94443.88
2023-04-12T18:26:24.049Z,94454.81
2023-04-12T18:28:52.294Z,94458.78
2023-04-12T18:31:20.812Z,94444.13
2023-04-12T18:33:49.218Z,94446.53
2023-04-12T18:36:18.964Z,94455.53
2023-04-12T18:38:47.353Z,94471.38
2023-04-12T18:41:16.453Z,94465.91
2023-04-12T18:43:44.731Z,94465.72
2023-04-12T18:46:17.881Z,94430.56
2023-04-12T18:48:48.214Z,94473.41
2023-04-12T18:51:16.677Z,94476.41
2023-04-12T18:53:46.528Z,94490.47
2023-04-12T18:56:18.307Z,94489.75
2023-04-12T19:01:19.635Z,94490.06
2023-04-12T19:03:48.730Z,94499.72
2023-04-12T19:06:17.175Z,94429.16
2023-04-12T19:08:46.901Z,94477.81
2023-04-12T19:11:15.638Z,94495.06
2023-04-12T19:13:44.185Z,94436.97
2023-04-12T19:16:12.718Z,94500.72
2023-04-12T19:18:41.104Z,94503.38
2023-04-12T19:21:09.448Z,94503.03
2023-04-12T19:23:38.276Z,94521.19
2023-04-12T19:26:08.111Z,94521.56
2023-04-12T19:28:36.587Z,94524.31
2023-04-12T19:31:10.230Z,94526.81
2023-04-12T19:33:39.081Z,94521.59
2023-04-12T19:36:07.743Z,94513.94
2023-04-12T19:38:36.086Z,94512.16
2023-04-12T19:41:04.466Z,94479.59
2023-04-12T19:43:34.209Z,94505.50
2023-04-12T19:46:02.675Z,94429.78
2023-04-12T19:48:31.237Z,94498.63
2023-04-12T19:50:59.893Z,94501.16
2023-04-12T19:53:28.130Z,94497.56
2023-04-12T19:55:58.667Z,94501.19
2023-04-12T19:58:26.996Z,94517.63
2023-04-12T20:00:56.678Z,94530.69
2023-04-12T20:03:24.994Z,94521.28
2023-04-12T20:05:53.312Z,94526.94
2023-04-12T20:08:22.812Z,94460.22
2023-04-12T20:10:51.234Z,94534.00
2023-04-12T20:13:19.486Z,94526.94
2023-04-12T20:15:47.718Z,94536.25
2023-04-12T20:18:18.137Z,94532.72
2023-04-12T20:20:46.528Z,94489.75
2023-04-12T20:23:15.134Z,94539.38
2023-04-12T20:25:45.637Z,94534.97
2023-04-12T20:28:14.896Z,94546.00
2023-04-12T20:30:43.254Z,94544.34
2023-04-12T20:33:12.535Z,94536.28
2023-04-12T20:35:42.630Z,94546.97
2023-04-12T20:38:10.895Z,94557.47
2023-04-12T20:40:39.968Z,94555.75
2023-04-12T20:43:08.722Z,94561.19
2023-04-12T20:45:38.151Z,94559.59
2023-04-12T20:48:06.643Z,94552.63
2023-04-12T20:50:34.864Z,94558.34
2023-04-12T20:53:04.803Z,94565.53
2023-04-12T20:55:34.954Z,94524.91
2023-04-12T20:58:04.371Z,94487.63
2023-04-12T21:00:33.816Z,94558.84
2023-04-12T21:05:50.594Z,94563.31
2023-04-12T21:08:20.566Z,94556.59
2023-04-12T21:10:49.816Z,94535.75
2023-04-12T21:13:22.756Z,94565.03
2023-04-12T21:15:52.639Z,94570.25
2023-04-12T21:18:21.730Z,94560.22
2023-04-12T21:20:50.176Z,94567.63
2023-04-12T21:23:20.064Z,93921.81
2023-04-12T21:25:49.834Z,94569.78
2023-04-12T21:28:18.311Z,94570.19
2023-04-12T21:30:46.552Z,94572.25
2023-04-12T21:33:16.574Z,94561.53
2023-04-12T21:35:45.325Z,94540.94
2023-04-12T21:38:13.640Z,94554.31
2023-04-12T21:40:43.310Z,94553.84
2023-04-12T21:43:11.685Z,94558.94
2023-04-12T21:45:39.953Z,94560.13
2023-04-12T21:48:08.360Z,94550.09
2023-04-12T21:50:37.745Z,94525.88
2023-04-12T21:53:06.126Z,94550.41
2023-04-12T21:55:34.330Z,94559.91
2023-04-12T21:58:05.473Z,94565.47
2023-04-12T22:00:33.793Z,94552.94
2023-04-12T22:03:02.438Z,94553.63
2023-04-12T22:05:31.513Z,94488.53
2023-04-12T22:07:59.691Z,94565.44
2023-04-12T22:10:28.011Z,94568.66
2023-04-12T22:12:56.262Z,94563.63
2023-04-12T22:15:26.243Z,94565.41
2023-04-12T22:17:54.842Z,94565.63
2023-04-12T22:20:23.212Z,94559.56
2023-04-12T22:22:51.586Z,94539.94
2023-04-12T22:25:20.084Z,94564.47
2023-04-12T22:27:48.872Z,94568.81
2023-04-12T22:30:17.184Z,94568.22
2023-04-12T22:32:46.895Z,94561.47
2023-04-12T22:35:16.216Z,94491.44
2023-04-12T22:37:44.526Z,94574.38
2023-04-12T22:40:14.039Z,94492.72
2023-04-12T22:42:46.726Z,94569.91
2023-04-12T22:45:16.134Z,94487.16
2023-04-12T22:47:44.750Z,94570.25
2023-04-12T22:50:15.215Z,94573.16
2023-04-12T22:52:43.626Z,94572.56
2023-04-12T22:55:14.397Z,94576.31
2023-04-12T22:57:42.717Z,94556.66
2023-04-12T23:00:16.556Z,94582.16
2023-04-12T23:02:47.831Z,94584.03
2023-04-12T23:05:17.926Z,94567.94
2023-04-12T23:07:46.192Z,94582.88
2023-04-12T23:10:14.493Z,94592.31
2023-04-12T23:12:42.756Z,94594.09
2023-04-12T23:15:12.831Z,94592.72
2023-04-12T23:17:41.195Z,94590.75
2023-04-12T23:20:13.311Z,94593.31
2023-04-12T23:22:57.732Z,94605.91
2023-04-12T23:25:29.244Z,94597.97
2023-04-12T23:27:57.608Z,94606.50
2023-04-12T23:30:29.919Z,94603.63
2023-04-12T23:32:58.569Z,94608.16
2023-04-12T23:35:26.969Z,94597.25
2023-04-12T23:37:56.672Z,94608.06
2023-04-12T23:40:26.831Z,94604.16
2023-04-12T23:42:55.466Z,94597.88
2023-04-12T23:45:23.811Z,94602.13
2023-04-12T23:47:52.022Z,94614.84
2023-04-12T23:50:20.581Z,94618.59
2023-04-12T23:52:49.182Z,94622.66
2023-04-12T23:55:19.071Z,94619.13
2023-04-12T23:57:47.287Z,94621.66
